Detall de PIREP

Printer-friendly versionPDF version

[2013/12/18 10:22:00]
Flight IATA:CT1005
Pilot Number:011
Company ICAO:CAT
Aircraft Type:B738/F
PAX:160
Departing Airport: LOWW
Destination Airport: EBOS
Alternate Airport:EBBR
Online: VATSIM
Route:MOTIX UL610 BATTY UL608 DENUT
Flight Level:F320
No Slew and time accel
No pause
Crash detect
Detect pilot in Cockpit between each 30 and 45 minutes
10:22 Zero fuel Weight: 136491 Lbs, Fuel Weight: 17502 Lbs
10:22 VATSIM:LOWW 180950Z 15005KT 5000 FZBR SCT004 BKN005 M02/M02 Q1030 R88/19//95 NOSIG
10:22 VATSIM:EBOS 180950Z 20011KT 9999 FEW022 07/04 Q1017 NOSIG
10:28 Parking Brakes off
10:44 Take-off
10:44 Take off Weight: 152862 Lbs
10:44 Wind: 144º @ 006 Knots Heading: 116º
10:44 POS N48º 06´ 58´´ E016º 33´ 14´´
10:44 Gear Up: 176 Knots
10:44 Flaps:5 at 176 Knots
10:45 Flaps:4 at 239 Knots
10:45 Flaps:3 at 237 Knots
10:46 Flaps:2 at 235 Knots
10:46 Flaps:1 at 236 Knots
10:46 Flaps:0 at 237 Knots
10:56 TOC
10:56 Fuel Weight: 13342 Lb
10:59 Wind:103º@016 Knots Heading: 283º Ground Speed: 446 Knots Altitude 32440 ft
11:14 Wind:075º@014 Knots Heading: 298º Ground Speed: 445 Knots Altitude 32365 ft
11:29 Wind:172º@010 Knots Heading: 304º Ground Speed: 448 Knots Altitude 32286 ft
11:44 Wind:208º@031 Knots Heading: 280º Ground Speed: 439 Knots Altitude 32175 ft
11:49 TOD
11:49 Fuel Weight: 8461 Lb
11:59 Wind:204º@028 Knots Heading: 297º Ground Speed: 359 Knots Altitude 13566 ft
12:06 Flaps:1 at 260 Knots
12:06 Flaps:2 at 260 Knots
12:07 Flaps:3 at 251 Knots
12:07 Flaps:4 at 244 Knots
12:08 Flaps:5 at 207 Knots
12:09 Flaps:6 at 182 Knots
12:09 Gear Down: 179 Knots
12:10 Flaps:7 at 157 Knots
12:10 Flaps:8 at 152 Knots
12:13 TouchDown:Rate -40 ft/min Speed: 126 Knots
12:14 Wind:194º@011 Knots Heading: 252º Ground Speed: 114 Knots Altitude 019 ft
12:14 VATSIM:EBOS 181150Z 19011KT CAVOK 08/04 Q1016 NOSIG
12:14 Land
12:14 Wind:194º@011 Knots
12:14 Heading: 256º
12:14 Flight Duration: 01:30
12:14 Landing Weight: 143711 Lbs
12:14 POS N51º 11´ 54´´ E002º 51´ 57´´
12:17 Parking brakes on
12:17 Block to Block Duration: 01:49
12:17 Final Fuel: 6946 Lbls
12:17 Spent Fuel: 10555 Lbls
12:17 Flight Length: 544 NM
12:17 TOD Land Length: 82 NM

Exportar CSV

Powered by Drupal - Modified by Danger4k